Terminal Aerodrome Forecast
Issued by NWS Wilmington, NC

Home | Current Version | Previous Version | Text Only | Print | Product List | Glossary On
Versions: 1 2 3 4 5 6 7 8 9 10 11 12 13 14 15 16
000
FTUS42 KILM 250520
TAFILM
TAF
KILM 250520Z 2506/2606 21006KT P6SM VCTS OVC050CB
     FM250800 22005KT P6SM VCTS OVC015CB
      TEMPO 2508/2511 5SM BR
     FM251100 25005KT P6SM OVC010
      TEMPO 2511/2512 5SM BR
     FM251300 25006KT P6SM VCTS OVC010CB
     FM251500 23006KT P6SM BKN020 PROB30 2515/2521 4SM -TSRA
      OVC015CB=

USA.gov is the U.S. government's official web portal to all federal, state and local government web resources and services.